Terminal Aerodrome Forecast
Issued by NWS

Home | Current Version | Previous Version | Text Only | Print | Product List | Glossary On
Versions: 1 2 3 4 5 6 7 8 9 10 11 12 13 14 15 16 17 18 19 20 21 22 23 24 25 26 27
195
FTUS45 KPSR 221120
TAFPHX
TAF
KPHX 221120Z 2212/2318 10004KT P6SM SCT140
     FM222000 26007KT P6SM FEW120 FEW250
     FM230900 10005KT P6SM FEW120 SCT250=

USA.gov is the U.S. government's official web portal to all federal, state and local government web resources and services.